sensor_id;sensor_type;location;lat;lon;timestamp;temperature;humidity
76168;DHT22;64927;48.214;16.378;2023-07-13T00:00:46;23.40;62.40
76168;DHT22;64927;48.214;16.378;2023-07-13T00:03:12;23.50;62.20
76168;DHT22;64927;48.214;16.378;2023-07-13T00:05:39;23.30;62.70
76168;DHT22;64927;48.214;16.378;2023-07-13T00:08:05;23.30;62.40
76168;DHT22;64927;48.214;16.378;2023-07-13T00:10:30;23.40;62.30
76168;DHT22;64927;48.214;16.378;2023-07-13T00:12:57;23.40;61.60
76168;DHT22;64927;48.214;16.378;2023-07-13T00:15:25;23.50;61.40
76168;DHT22;64927;48.214;16.378;2023-07-13T00:17:55;23.50;61.60
76168;DHT22;64927;48.214;16.378;2023-07-13T00:20:24;23.50;61.50
76168;DHT22;64927;48.214;16.378;2023-07-13T00:22:53;23.50;61.20
76168;DHT22;64927;48.214;16.378;2023-07-13T00:25:20;23.50;61.20
76168;DHT22;64927;48.214;16.378;2023-07-13T00:27:47;23.60;60.90
76168;DHT22;64927;48.214;16.378;2023-07-13T00:30:16;23.60;60.40
76168;DHT22;64927;48.214;16.378;2023-07-13T00:32:45;23.50;60.40
76168;DHT22;64927;48.214;16.378;2023-07-13T00:35:14;23.50;60.50
76168;DHT22;64927;48.214;16.378;2023-07-13T00:37:42;23.60;60.50
76168;DHT22;64927;48.214;16.378;2023-07-13T00:40:12;23.60;60.40
76168;DHT22;64927;48.214;16.378;2023-07-13T00:42:38;23.50;60.10
76168;DHT22;64927;48.214;16.378;2023-07-13T00:47:54;23.50;59.90
76168;DHT22;64927;48.214;16.378;2023-07-13T00:50:23;23.60;59.80
76168;DHT22;64927;48.214;16.378;2023-07-13T00:52:56;23.60;59.10
76168;DHT22;64927;48.214;16.378;2023-07-13T00:55:23;23.60;58.60
76168;DHT22;64927;48.214;16.378;2023-07-13T00:57:51;23.60;58.40
76168;DHT22;64927;48.214;16.378;2023-07-13T01:00:17;23.60;58.40
76168;DHT22;64927;48.214;16.378;2023-07-13T01:02:45;23.60;57.50
76168;DHT22;64927;48.214;16.378;2023-07-13T01:05:17;23.60;57.50
76168;DHT22;64927;48.214;16.378;2023-07-13T01:07:44;23.80;57.40
76168;DHT22;64927;48.214;16.378;2023-07-13T01:10:35;23.70;57.00
76168;DHT22;64927;48.214;16.378;2023-07-13T01:13:08;23.70;56.40
76168;DHT22;64927;48.214;16.378;2023-07-13T01:15:42;23.90;56.00
76168;DHT22;64927;48.214;16.378;2023-07-13T01:18:18;23.80;56.00
76168;DHT22;64927;48.214;16.378;2023-07-13T01:20:55;23.90;55.10
76168;DHT22;64927;48.214;16.378;2023-07-13T01:23:24;23.90;54.30
76168;DHT22;64927;48.214;16.378;2023-07-13T01:25:56;23.90;54.70
76168;DHT22;64927;48.214;16.378;2023-07-13T01:28:24;23.90;55.00
76168;DHT22;64927;48.214;16.378;2023-07-13T01:30:53;23.90;53.30
76168;DHT22;64927;48.214;16.378;2023-07-13T01:33:19;24.00;52.90
76168;DHT22;64927;48.214;16.378;2023-07-13T01:35:46;24.20;51.70
76168;DHT22;64927;48.214;16.378;2023-07-13T01:38:17;24.20;51.40
76168;DHT22;64927;48.214;16.378;2023-07-13T01:40:45;24.30;51.10
76168;DHT22;64927;48.214;16.378;2023-07-13T01:43:11;24.30;51.20
76168;DHT22;64927;48.214;16.378;2023-07-13T01:45:36;24.30;51.10
76168;DHT22;64927;48.214;16.378;2023-07-13T01:48:02;24.40;51.50
76168;DHT22;64927;48.214;16.378;2023-07-13T01:50:28;24.40;51.10
76168;DHT22;64927;48.214;16.378;2023-07-13T01:52:54;24.40;50.40
76168;DHT22;64927;48.214;16.378;2023-07-13T01:55:21;24.40;50.70
76168;DHT22;64927;48.214;16.378;2023-07-13T01:57:47;24.50;50.80
76168;DHT22;64927;48.214;16.378;2023-07-13T02:00:13;24.60;50.80
76168;DHT22;64927;48.214;16.378;2023-07-13T02:02:39;24.60;50.30
76168;DHT22;64927;48.214;16.378;2023-07-13T02:05:08;24.70;50.90
76168;DHT22;64927;48.214;16.378;2023-07-13T02:07:34;24.70;51.00
76168;DHT22;64927;48.214;16.378;2023-07-13T02:09:59;24.70;50.40
76168;DHT22;64927;48.214;16.378;2023-07-13T02:12:25;24.90;50.40
76168;DHT22;64927;48.214;16.378;2023-07-13T02:14:50;25.00;50.30
76168;DHT22;64927;48.214;16.378;2023-07-13T02:17:16;25.00;50.00
76168;DHT22;64927;48.214;16.378;2023-07-13T02:19:41;25.00;50.10
76168;DHT22;64927;48.214;16.378;2023-07-13T02:22:07;25.10;50.20
76168;DHT22;64927;48.214;16.378;2023-07-13T02:24:35;25.10;50.30
76168;DHT22;64927;48.214;16.378;2023-07-13T02:27:03;25.10;50.10
76168;DHT22;64927;48.214;16.378;2023-07-13T02:29:31;25.10;50.10
76168;DHT22;64927;48.214;16.378;2023-07-13T02:31:56;25.10;50.30
76168;DHT22;64927;48.214;16.378;2023-07-13T02:34:22;25.00;50.40
76168;DHT22;64927;48.214;16.378;2023-07-13T02:36:48;25.10;50.50
76168;DHT22;64927;48.214;16.378;2023-07-13T02:39:13;25.10;50.70
76168;DHT22;64927;48.214;16.378;2023-07-13T02:41:39;25.10;50.90
76168;DHT22;64927;48.214;16.378;2023-07-13T02:44:05;25.00;51.20
76168;DHT22;64927;48.214;16.378;2023-07-13T02:46:32;25.00;51.40
76168;DHT22;64927;48.214;16.378;2023-07-13T02:48:58;25.00;51.50
76168;DHT22;64927;48.214;16.378;2023-07-13T02:51:23;24.90;51.80
76168;DHT22;64927;48.214;16.378;2023-07-13T02:53:49;25.00;51.90
76168;DHT22;64927;48.214;16.378;2023-07-13T02:56:15;24.90;52.40
76168;DHT22;64927;48.214;16.378;2023-07-13T02:58:40;24.90;53.70
76168;DHT22;64927;48.214;16.378;2023-07-13T03:01:10;24.80;54.10
76168;DHT22;64927;48.214;16.378;2023-07-13T03:03:37;24.70;55.20
76168;DHT22;64927;48.214;16.378;2023-07-13T03:06:04;24.60;55.50
76168;DHT22;64927;48.214;16.378;2023-07-13T03:08:33;24.40;56.80
76168;DHT22;64927;48.214;16.378;2023-07-13T03:11:14;24.40;58.70
76168;DHT22;64927;48.214;16.378;2023-07-13T03:13:41;24.10;58.00
76168;DHT22;64927;48.214;16.378;2023-07-13T03:16:10;23.90;60.00
76168;DHT22;64927;48.214;16.378;2023-07-13T03:18:36;23.60;60.70
76168;DHT22;64927;48.214;16.378;2023-07-13T03:21:03;23.50;60.70
76168;DHT22;64927;48.214;16.378;2023-07-13T03:23:29;23.30;62.50
76168;DHT22;64927;48.214;16.378;2023-07-13T03:26:18;23.30;62.70
76168;DHT22;64927;48.214;16.378;2023-07-13T03:28:44;23.20;63.50
76168;DHT22;64927;48.214;16.378;2023-07-13T03:31:16;22.90;64.00
76168;DHT22;64927;48.214;16.378;2023-07-13T03:33:42;22.90;64.20
76168;DHT22;64927;48.214;16.378;2023-07-13T03:36:13;22.80;65.00
76168;DHT22;64927;48.214;16.378;2023-07-13T03:38:39;22.80;65.80
76168;DHT22;64927;48.214;16.378;2023-07-13T03:41:05;22.70;65.30
76168;DHT22;64927;48.214;16.378;2023-07-13T03:43:31;22.70;65.60
76168;DHT22;64927;48.214;16.378;2023-07-13T03:45:58;22.80;65.50
76168;DHT22;64927;48.214;16.378;2023-07-13T03:48:24;22.80;65.30
76168;DHT22;64927;48.214;16.378;2023-07-13T03:50:49;22.80;66.60
76168;DHT22;64927;48.214;16.378;2023-07-13T03:53:15;22.70;66.40
76168;DHT22;64927;48.214;16.378;2023-07-13T03:55:41;22.60;66.10
76168;DHT22;64927;48.214;16.378;2023-07-13T03:58:38;22.50;67.30
76168;DHT22;64927;48.214;16.378;2023-07-13T04:01:06;22.30;68.10
76168;DHT22;64927;48.214;16.378;2023-07-13T04:03:33;22.30;68.20
76168;DHT22;64927;48.214;16.378;2023-07-13T04:06:03;22.40;68.80
76168;DHT22;64927;48.214;16.378;2023-07-13T04:08:36;22.50;68.80
76168;DHT22;64927;48.214;16.378;2023-07-13T04:11:03;22.50;69.00
76168;DHT22;64927;48.214;16.378;2023-07-13T04:13:31;22.50;68.70
76168;DHT22;64927;48.214;16.378;2023-07-13T04:15:59;22.40;70.20
76168;DHT22;64927;48.214;16.378;2023-07-13T04:18:25;22.30;70.20
76168;DHT22;64927;48.214;16.378;2023-07-13T04:20:51;22.30;70.00
76168;DHT22;64927;48.214;16.378;2023-07-13T04:23:17;22.30;70.20
76168;DHT22;64927;48.214;16.378;2023-07-13T04:25:44;22.20;70.20
76168;DHT22;64927;48.214;16.378;2023-07-13T04:28:10;22.20;70.40
76168;DHT22;64927;48.214;16.378;2023-07-13T04:30:36;22.30;71.00
76168;DHT22;64927;48.214;16.378;2023-07-13T04:33:04;22.20;71.30
76168;DHT22;64927;48.214;16.378;2023-07-13T04:35:30;22.20;72.10
76168;DHT22;64927;48.214;16.378;2023-07-13T04:37:56;22.20;70.60
76168;DHT22;64927;48.214;16.378;2023-07-13T04:40:22;22.30;72.00
76168;DHT22;64927;48.214;16.378;2023-07-13T04:42:48;22.20;72.10
76168;DHT22;64927;48.214;16.378;2023-07-13T04:45:14;22.20;72.10
76168;DHT22;64927;48.214;16.378;2023-07-13T04:47:41;22.20;71.80
76168;DHT22;64927;48.214;16.378;2023-07-13T04:50:07;22.30;71.80
76168;DHT22;64927;48.214;16.378;2023-07-13T04:52:33;22.30;71.50
76168;DHT22;64927;48.214;16.378;2023-07-13T04:55:02;22.30;71.70
76168;DHT22;64927;48.214;16.378;2023-07-13T04:57:28;22.20;70.70
76168;DHT22;64927;48.214;16.378;2023-07-13T04:59:54;22.30;70.80
76168;DHT22;64927;48.214;16.378;2023-07-13T05:02:23;22.40;71.30
76168;DHT22;64927;48.214;16.378;2023-07-13T05:04:49;22.30;70.60
76168;DHT22;64927;48.214;16.378;2023-07-13T05:07:14;22.40;69.80
76168;DHT22;64927;48.214;16.378;2023-07-13T05:09:40;22.40;69.60
76168;DHT22;64927;48.214;16.378;2023-07-13T05:12:08;22.50;69.70
76168;DHT22;64927;48.214;16.378;2023-07-13T05:14:34;22.60;70.30
76168;DHT22;64927;48.214;16.378;2023-07-13T05:16:59;22.70;69.20
76168;DHT22;64927;48.214;16.378;2023-07-13T05:19:25;22.70;69.10
76168;DHT22;64927;48.214;16.378;2023-07-13T05:21:53;22.70;68.60
76168;DHT22;64927;48.214;16.378;2023-07-13T05:24:19;22.60;67.70
76168;DHT22;64927;48.214;16.378;2023-07-13T05:26:45;22.70;67.20
76168;DHT22;64927;48.214;16.378;2023-07-13T05:29:11;22.70;67.50
76168;DHT22;64927;48.214;16.378;2023-07-13T05:31:36;22.90;67.40
76168;DHT22;64927;48.214;16.378;2023-07-13T05:34:02;23.00;68.30
76168;DHT22;64927;48.214;16.378;2023-07-13T05:36:28;23.20;65.90
76168;DHT22;64927;48.214;16.378;2023-07-13T05:38:56;23.30;65.00
76168;DHT22;64927;48.214;16.378;2023-07-13T05:41:21;23.40;66.60
76168;DHT22;64927;48.214;16.378;2023-07-13T05:43:47;23.50;64.30
76168;DHT22;64927;48.214;16.378;2023-07-13T05:46:12;23.50;65.00
76168;DHT22;64927;48.214;16.378;2023-07-13T05:48:38;23.50;64.10
76168;DHT22;64927;48.214;16.378;2023-07-13T05:51:06;23.60;64.10
76168;DHT22;64927;48.214;16.378;2023-07-13T05:53:33;23.60;63.50
76168;DHT22;64927;48.214;16.378;2023-07-13T05:56:01;23.60;63.00
76168;DHT22;64927;48.214;16.378;2023-07-13T05:58:27;23.60;63.20
76168;DHT22;64927;48.214;16.378;2023-07-13T06:01:04;23.60;63.00
76168;DHT22;64927;48.214;16.378;2023-07-13T06:03:33;23.50;62.70
76168;DHT22;64927;48.214;16.378;2023-07-13T06:05:58;23.40;62.70
76168;DHT22;64927;48.214;16.378;2023-07-13T06:08:27;23.40;63.10
76168;DHT22;64927;48.214;16.378;2023-07-13T06:10:53;23.30;63.10
76168;DHT22;64927;48.214;16.378;2023-07-13T06:13:22;23.10;62.50
76168;DHT22;64927;48.214;16.378;2023-07-13T06:15:50;22.90;64.00
76168;DHT22;64927;48.214;16.378;2023-07-13T06:18:16;22.90;63.00
76168;DHT22;64927;48.214;16.378;2023-07-13T06:20:44;22.90;64.20
76168;DHT22;64927;48.214;16.378;2023-07-13T06:23:09;23.00;63.70
76168;DHT22;64927;48.214;16.378;2023-07-13T06:25:35;22.90;63.80
76168;DHT22;64927;48.214;16.378;2023-07-13T06:28:01;23.00;63.80
76168;DHT22;64927;48.214;16.378;2023-07-13T06:30:26;23.00;64.70
76168;DHT22;64927;48.214;16.378;2023-07-13T06:32:52;22.80;64.50
76168;DHT22;64927;48.214;16.378;2023-07-13T06:35:18;22.80;65.90
76168;DHT22;64927;48.214;16.378;2023-07-13T06:37:44;22.80;66.80
76168;DHT22;64927;48.214;16.378;2023-07-13T06:40:10;22.70;66.00
76168;DHT22;64927;48.214;16.378;2023-07-13T06:42:35;22.80;65.30
76168;DHT22;64927;48.214;16.378;2023-07-13T06:45:01;22.80;65.80
76168;DHT22;64927;48.214;16.378;2023-07-13T06:47:33;22.90;66.00
76168;DHT22;64927;48.214;16.378;2023-07-13T06:49:59;23.00;65.50
76168;DHT22;64927;48.214;16.378;2023-07-13T06:52:25;23.00;66.10
76168;DHT22;64927;48.214;16.378;2023-07-13T06:54:51;23.10;65.50
76168;DHT22;64927;48.214;16.378;2023-07-13T06:57:16;23.30;66.20
76168;DHT22;64927;48.214;16.378;2023-07-13T06:59:42;23.40;65.10
76168;DHT22;64927;48.214;16.378;2023-07-13T07:02:10;23.60;64.60
76168;DHT22;64927;48.214;16.378;2023-07-13T07:04:36;23.70;64.20
76168;DHT22;64927;48.214;16.378;2023-07-13T07:07:04;23.70;62.50
76168;DHT22;64927;48.214;16.378;2023-07-13T07:09:29;23.70;63.30
76168;DHT22;64927;48.214;16.378;2023-07-13T07:11:56;23.70;62.50
76168;DHT22;64927;48.214;16.378;2023-07-13T07:14:22;23.90;62.60
76168;DHT22;64927;48.214;16.378;2023-07-13T07:16:48;24.00;62.50
76168;DHT22;64927;48.214;16.378;2023-07-13T07:19:13;24.30;62.60
76168;DHT22;64927;48.214;16.378;2023-07-13T07:21:39;24.40;61.10
76168;DHT22;64927;48.214;16.378;2023-07-13T07:24:05;24.30;60.30
76168;DHT22;64927;48.214;16.378;2023-07-13T07:26:31;24.20;60.20
76168;DHT22;64927;48.214;16.378;2023-07-13T07:28:57;24.20;60.50
76168;DHT22;64927;48.214;16.378;2023-07-13T07:31:22;24.30;59.60
76168;DHT22;64927;48.214;16.378;2023-07-13T07:33:48;24.40;58.80
76168;DHT22;64927;48.214;16.378;2023-07-13T07:36:15;24.40;58.90
76168;DHT22;64927;48.214;16.378;2023-07-13T07:38:41;24.40;58.30
76168;DHT22;64927;48.214;16.378;2023-07-13T07:41:07;24.50;57.80
76168;DHT22;64927;48.214;16.378;2023-07-13T07:43:33;24.60;57.50
76168;DHT22;64927;48.214;16.378;2023-07-13T07:45:59;24.60;57.90
76168;DHT22;64927;48.214;16.378;2023-07-13T07:48:24;24.70;58.10
76168;DHT22;64927;48.214;16.378;2023-07-13T07:50:50;24.90;57.50
76168;DHT22;64927;48.214;16.378;2023-07-13T07:53:15;24.80;56.50
76168;DHT22;64927;48.214;16.378;2023-07-13T07:55:41;24.80;55.90
76168;DHT22;64927;48.214;16.378;2023-07-13T07:58:09;24.80;56.70
76168;DHT22;64927;48.214;16.378;2023-07-13T08:00:35;24.80;56.50
76168;DHT22;64927;48.214;16.378;2023-07-13T08:03:01;24.90;57.50
76168;DHT22;64927;48.214;16.378;2023-07-13T08:05:27;24.90;56.30
76168;DHT22;64927;48.214;16.378;2023-07-13T08:07:52;24.90;55.40
76168;DHT22;64927;48.214;16.378;2023-07-13T08:10:18;25.10;55.80
76168;DHT22;64927;48.214;16.378;2023-07-13T08:12:47;25.20;56.60
76168;DHT22;64927;48.214;16.378;2023-07-13T08:15:15;25.60;55.50
76168;DHT22;64927;48.214;16.378;2023-07-13T08:17:43;26.20;54.00
76168;DHT22;64927;48.214;16.378;2023-07-13T08:20:11;26.90;53.30
76168;DHT22;64927;48.214;16.378;2023-07-13T08:22:37;27.70;52.20
76168;DHT22;64927;48.214;16.378;2023-07-13T08:25:02;28.40;49.50
76168;DHT22;64927;48.214;16.378;2023-07-13T08:27:28;28.70;47.70
76168;DHT22;64927;48.214;16.378;2023-07-13T08:29:54;28.90;47.40
76168;DHT22;64927;48.214;16.378;2023-07-13T08:32:22;29.40;45.00
76168;DHT22;64927;48.214;16.378;2023-07-13T08:34:48;29.90;45.00
76168;DHT22;64927;48.214;16.378;2023-07-13T08:37:14;30.20;43.10
76168;DHT22;64927;48.214;16.378;2023-07-13T08:39:40;30.00;43.60
76168;DHT22;64927;48.214;16.378;2023-07-13T08:45:14;30.10;42.70
76168;DHT22;64927;48.214;16.378;2023-07-13T08:47:55;30.60;42.30
76168;DHT22;64927;48.214;16.378;2023-07-13T08:50:26;31.00;41.10
76168;DHT22;64927;48.214;16.378;2023-07-13T08:52:55;30.70;40.40
76168;DHT22;64927;48.214;16.378;2023-07-13T08:55:31;30.00;43.20
76168;DHT22;64927;48.214;16.378;2023-07-13T08:58:09;29.60;43.00
76168;DHT22;64927;48.214;16.378;2023-07-13T09:03:23;30.40;42.40
76168;DHT22;64927;48.214;16.378;2023-07-13T09:05:58;30.50;42.10
76168;DHT22;64927;48.214;16.378;2023-07-13T09:08:36;30.40;41.60
76168;DHT22;64927;48.214;16.378;2023-07-13T09:14:21;30.20;42.70
76168;DHT22;64927;48.214;16.378;2023-07-13T09:16:51;30.30;42.40
76168;DHT22;64927;48.214;16.378;2023-07-13T09:19:28;30.30;42.40
76168;DHT22;64927;48.214;16.378;2023-07-13T09:21:56;30.20;42.60
76168;DHT22;64927;48.214;16.378;2023-07-13T09:24:37;30.10;42.60
76168;DHT22;64927;48.214;16.378;2023-07-13T09:27:21;29.70;42.80
76168;DHT22;64927;48.214;16.378;2023-07-13T09:32:48;29.70;44.00
76168;DHT22;64927;48.214;16.378;2023-07-13T09:35:19;29.40;44.30
76168;DHT22;64927;48.214;16.378;2023-07-13T09:37:46;29.00;45.10
76168;DHT22;64927;48.214;16.378;2023-07-13T09:40:25;28.80;45.30
76168;DHT22;64927;48.214;16.378;2023-07-13T09:42:56;28.70;46.10
76168;DHT22;64927;48.214;16.378;2023-07-13T09:45:33;28.80;46.00
76168;DHT22;64927;48.214;16.378;2023-07-13T09:48:07;28.70;46.10
76168;DHT22;64927;48.214;16.378;2023-07-13T09:50:41;28.50;45.80
76168;DHT22;64927;48.214;16.378;2023-07-13T09:53:18;28.60;46.10
76168;DHT22;64927;48.214;16.378;2023-07-13T09:55:48;28.70;46.30
76168;DHT22;64927;48.214;16.378;2023-07-13T09:58:20;28.80;46.30
76168;DHT22;64927;48.214;16.378;2023-07-13T10:00:57;29.20;44.80
76168;DHT22;64927;48.214;16.378;2023-07-13T10:03:27;29.40;44.20
76168;DHT22;64927;48.214;16.378;2023-07-13T10:05:53;29.60;44.30
76168;DHT22;64927;48.214;16.378;2023-07-13T10:08:28;29.90;43.30
76168;DHT22;64927;48.214;16.378;2023-07-13T10:11:00;30.10;42.50
76168;DHT22;64927;48.214;16.378;2023-07-13T10:13:34;30.40;41.30
76168;DHT22;64927;48.214;16.378;2023-07-13T10:16:03;30.50;42.00
76168;DHT22;64927;48.214;16.378;2023-07-13T10:18:36;30.40;41.40
76168;DHT22;64927;48.214;16.378;2023-07-13T10:21:20;30.70;40.70
76168;DHT22;64927;48.214;16.378;2023-07-13T10:23:56;30.30;41.10
76168;DHT22;64927;48.214;16.378;2023-07-13T10:26:34;30.40;41.10
76168;DHT22;64927;48.214;16.378;2023-07-13T10:29:06;30.70;40.70
76168;DHT22;64927;48.214;16.378;2023-07-13T10:31:37;31.00;39.80
76168;DHT22;64927;48.214;16.378;2023-07-13T10:34:03;30.90;39.10
76168;DHT22;64927;48.214;16.378;2023-07-13T10:36:41;30.80;39.70
76168;DHT22;64927;48.214;16.378;2023-07-13T10:39:23;30.80;39.60
76168;DHT22;64927;48.214;16.378;2023-07-13T10:41:56;30.20;39.10
76168;DHT22;64927;48.214;16.378;2023-07-13T10:44:27;30.00;40.60
76168;DHT22;64927;48.214;16.378;2023-07-13T10:46:58;29.90;41.10
76168;DHT22;64927;48.214;16.378;2023-07-13T10:49:27;29.80;41.00
76168;DHT22;64927;48.214;16.378;2023-07-13T10:51:56;29.60;42.50
76168;DHT22;64927;48.214;16.378;2023-07-13T10:54:35;29.30;41.90
76168;DHT22;64927;48.214;16.378;2023-07-13T10:57:20;29.10;42.30
76168;DHT22;64927;48.214;16.378;2023-07-13T11:02:29;28.80;42.00
76168;DHT22;64927;48.214;16.378;2023-07-13T11:04:57;29.10;42.50
76168;DHT22;64927;48.214;16.378;2023-07-13T11:07:26;29.30;41.60
76168;DHT22;64927;48.214;16.378;2023-07-13T11:09:55;29.30;41.10
76168;DHT22;64927;48.214;16.378;2023-07-13T11:27:51;30.60;37.00
76168;DHT22;64927;48.214;16.378;2023-07-13T11:35:35;30.80;37.20
76168;DHT22;64927;48.214;16.378;2023-07-13T11:38:02;30.80;37.10
76168;DHT22;64927;48.214;16.378;2023-07-13T11:40:33;30.90;36.50
76168;DHT22;64927;48.214;16.378;2023-07-13T11:43:00;30.90;36.00
76168;DHT22;64927;48.214;16.378;2023-07-13T11:45:28;30.90;37.00
76168;DHT22;64927;48.214;16.378;2023-07-13T11:47:54;30.90;36.10
76168;DHT22;64927;48.214;16.378;2023-07-13T11:50:25;30.70;37.10
76168;DHT22;64927;48.214;16.378;2023-07-13T11:52:52;30.90;37.20
76168;DHT22;64927;48.214;16.378;2023-07-13T11:55:21;30.80;36.50
76168;DHT22;64927;48.214;16.378;2023-07-13T11:57:56;30.90;36.40
76168;DHT22;64927;48.214;16.378;2023-07-13T12:00:27;30.70;36.90
76168;DHT22;64927;48.214;16.378;2023-07-13T12:02:59;30.70;35.30
76168;DHT22;64927;48.214;16.378;2023-07-13T12:05:31;30.70;34.90
76168;DHT22;64927;48.214;16.378;2023-07-13T12:08:09;30.70;34.60
76168;DHT22;64927;48.214;16.378;2023-07-13T12:10:36;30.60;35.00
76168;DHT22;64927;48.214;16.378;2023-07-13T12:13:04;30.70;35.00
76168;DHT22;64927;48.214;16.378;2023-07-13T12:15:40;30.70;35.20
76168;DHT22;64927;48.214;16.378;2023-07-13T12:18:20;30.90;34.90
76168;DHT22;64927;48.214;16.378;2023-07-13T12:20:47;30.90;35.20
76168;DHT22;64927;48.214;16.378;2023-07-13T12:23:34;30.80;35.20
76168;DHT22;64927;48.214;16.378;2023-07-13T12:26:03;30.80;35.80
76168;DHT22;64927;48.214;16.378;2023-07-13T12:28:44;30.80;35.90
76168;DHT22;64927;48.214;16.378;2023-07-13T12:31:42;30.90;35.30
76168;DHT22;64927;48.214;16.378;2023-07-13T12:34:12;30.80;34.80
76168;DHT22;64927;48.214;16.378;2023-07-13T12:36:44;31.00;35.30
76168;DHT22;64927;48.214;16.378;2023-07-13T12:39:19;31.10;35.10
76168;DHT22;64927;48.214;16.378;2023-07-13T12:41:47;31.00;34.50
76168;DHT22;64927;48.214;16.378;2023-07-13T12:44:21;31.10;34.20
76168;DHT22;64927;48.214;16.378;2023-07-13T12:47:12;31.00;33.90
76168;DHT22;64927;48.214;16.378;2023-07-13T12:49:53;30.90;34.70
76168;DHT22;64927;48.214;16.378;2023-07-13T12:52:32;30.80;34.80
76168;DHT22;64927;48.214;16.378;2023-07-13T12:55:12;30.90;35.50
76168;DHT22;64927;48.214;16.378;2023-07-13T13:00:31;30.80;35.00
76168;DHT22;64927;48.214;16.378;2023-07-13T13:08:25;31.40;34.80
76168;DHT22;64927;48.214;16.378;2023-07-13T13:10:51;31.10;35.40
76168;DHT22;64927;48.214;16.378;2023-07-13T13:13:16;31.10;35.50
76168;DHT22;64927;48.214;16.378;2023-07-13T13:15:42;31.00;35.80
76168;DHT22;64927;48.214;16.378;2023-07-13T13:18:19;30.80;35.80
76168;DHT22;64927;48.214;16.378;2023-07-13T13:20:46;30.80;35.80
76168;DHT22;64927;48.214;16.378;2023-07-13T13:23:20;30.60;38.00
76168;DHT22;64927;48.214;16.378;2023-07-13T13:25:49;30.60;36.80
76168;DHT22;64927;48.214;16.378;2023-07-13T13:28:18;30.80;36.40
76168;DHT22;64927;48.214;16.378;2023-07-13T13:30:45;30.70;36.30
76168;DHT22;64927;48.214;16.378;2023-07-13T13:33:16;30.50;37.00
76168;DHT22;64927;48.214;16.378;2023-07-13T13:35:43;30.50;36.60
76168;DHT22;64927;48.214;16.378;2023-07-13T13:40:37;30.90;36.50
76168;DHT22;64927;48.214;16.378;2023-07-13T13:43:18;30.90;35.50
76168;DHT22;64927;48.214;16.378;2023-07-13T13:45:45;31.00;35.60
76168;DHT22;64927;48.214;16.378;2023-07-13T13:48:20;31.10;35.80
76168;DHT22;64927;48.214;16.378;2023-07-13T13:50:48;31.00;36.40
76168;DHT22;64927;48.214;16.378;2023-07-13T13:53:14;31.10;35.50
76168;DHT22;64927;48.214;16.378;2023-07-13T13:55:40;31.10;35.40
76168;DHT22;64927;48.214;16.378;2023-07-13T13:58:08;30.70;36.00
76168;DHT22;64927;48.214;16.378;2023-07-13T14:00:34;30.60;35.60
76168;DHT22;64927;48.214;16.378;2023-07-13T14:02:59;30.60;35.80
76168;DHT22;64927;48.214;16.378;2023-07-13T14:05:25;30.70;35.50
76168;DHT22;64927;48.214;16.378;2023-07-13T14:07:52;30.70;35.40
76168;DHT22;64927;48.214;16.378;2023-07-13T14:10:19;30.80;35.60
76168;DHT22;64927;48.214;16.378;2023-07-13T14:12:47;30.60;35.60
76168;DHT22;64927;48.214;16.378;2023-07-13T14:15:28;30.40;36.10
76168;DHT22;64927;48.214;16.378;2023-07-13T14:17:56;30.20;36.00
76168;DHT22;64927;48.214;16.378;2023-07-13T14:20:24;30.00;37.00
76168;DHT22;64927;48.214;16.378;2023-07-13T14:22:53;30.00;37.20
76168;DHT22;64927;48.214;16.378;2023-07-13T14:25:20;30.10;37.20
76168;DHT22;64927;48.214;16.378;2023-07-13T14:27:49;30.00;37.30
76168;DHT22;64927;48.214;16.378;2023-07-13T14:30:19;29.90;37.30
76168;DHT22;64927;48.214;16.378;2023-07-13T14:32:46;29.90;37.70
76168;DHT22;64927;48.214;16.378;2023-07-13T14:35:16;30.00;37.10
76168;DHT22;64927;48.214;16.378;2023-07-13T14:37:43;29.90;37.70
76168;DHT22;64927;48.214;16.378;2023-07-13T14:40:30;29.90;37.40
76168;DHT22;64927;48.214;16.378;2023-07-13T14:42:57;29.80;37.00
76168;DHT22;64927;48.214;16.378;2023-07-13T14:45:24;29.60;37.60
76168;DHT22;64927;48.214;16.378;2023-07-13T14:47:50;29.40;37.70
76168;DHT22;64927;48.214;16.378;2023-07-13T14:50:19;29.00;38.20
76168;DHT22;64927;48.214;16.378;2023-07-13T14:52:48;29.00;39.10
76168;DHT22;64927;48.214;16.378;2023-07-13T14:55:18;28.90;38.50
76168;DHT22;64927;48.214;16.378;2023-07-13T14:57:48;28.90;38.80
76168;DHT22;64927;48.214;16.378;2023-07-13T15:00:20;28.80;38.90
76168;DHT22;64927;48.214;16.378;2023-07-13T15:02:52;28.80;39.30
76168;DHT22;64927;48.214;16.378;2023-07-13T15:05:27;28.80;38.70
76168;DHT22;64927;48.214;16.378;2023-07-13T15:07:58;28.60;39.00
76168;DHT22;64927;48.214;16.378;2023-07-13T15:10:30;28.60;39.30
76168;DHT22;64927;48.214;16.378;2023-07-13T15:13:12;28.70;39.50
76168;DHT22;64927;48.214;16.378;2023-07-13T15:15:40;28.90;39.10
76168;DHT22;64927;48.214;16.378;2023-07-13T15:18:13;28.90;39.30
76168;DHT22;64927;48.214;16.378;2023-07-13T15:20:44;28.90;39.20
76168;DHT22;64927;48.214;16.378;2023-07-13T15:23:12;28.80;39.40
76168;DHT22;64927;48.214;16.378;2023-07-13T15:25:38;28.80;39.50
76168;DHT22;64927;48.214;16.378;2023-07-13T15:28:04;28.80;39.50
76168;DHT22;64927;48.214;16.378;2023-07-13T15:30:36;28.70;39.70
76168;DHT22;64927;48.214;16.378;2023-07-13T15:33:25;28.70;39.90
76168;DHT22;64927;48.214;16.378;2023-07-13T15:35:52;28.60;40.20
76168;DHT22;64927;48.214;16.378;2023-07-13T15:38:20;28.50;40.00
76168;DHT22;64927;48.214;16.378;2023-07-13T15:40:50;28.40;40.30
76168;DHT22;64927;48.214;16.378;2023-07-13T15:43:19;28.50;40.40
76168;DHT22;64927;48.214;16.378;2023-07-13T15:45:45;28.60;40.30
76168;DHT22;64927;48.214;16.378;2023-07-13T15:48:20;28.50;40.10
76168;DHT22;64927;48.214;16.378;2023-07-13T15:51:01;28.50;40.40
76168;DHT22;64927;48.214;16.378;2023-07-13T15:53:32;28.20;40.50
76168;DHT22;64927;48.214;16.378;2023-07-13T15:55:59;28.10;41.10
76168;DHT22;64927;48.214;16.378;2023-07-13T15:58:25;28.00;40.80
76168;DHT22;64927;48.214;16.378;2023-07-13T16:00:51;28.00;41.30
76168;DHT22;64927;48.214;16.378;2023-07-13T16:03:20;27.90;41.20
76168;DHT22;64927;48.214;16.378;2023-07-13T16:05:45;27.90;41.50
76168;DHT22;64927;48.214;16.378;2023-07-13T16:08:26;27.90;41.60
76168;DHT22;64927;48.214;16.378;2023-07-13T16:10:52;27.80;41.50
76168;DHT22;64927;48.214;16.378;2023-07-13T16:13:21;27.70;41.60
76168;DHT22;64927;48.214;16.378;2023-07-13T16:15:52;27.50;42.00